createdAt,value
2024-01-20T00:01:12.037Z,101306.91
2024-01-20T00:06:16.446Z,101311.38
2024-01-20T00:11:19.870Z,101315.81
2024-01-20T00:16:23.390Z,101307.16
2024-01-20T00:21:28.179Z,101290.94
2024-01-20T00:26:31.186Z,101281.50
2024-01-20T00:31:35.474Z,101282.63
2024-01-20T00:36:39.860Z,101298.47
2024-01-20T00:41:42.946Z,101294.75
2024-01-20T00:46:46.647Z,101301.28
2024-01-20T00:51:50.920Z,101310.03
2024-01-20T00:56:54.009Z,101306.56
2024-01-20T01:01:57.003Z,101316.94
2024-01-20T01:07:01.310Z,101324.38
2024-01-20T01:12:04.672Z,101319.97
2024-01-20T01:17:07.845Z,101317.09
2024-01-20T01:22:12.182Z,101326.63
2024-01-20T01:27:15.120Z,101313.53
2024-01-20T01:32:18.260Z,101335.75
2024-01-20T01:37:22.715Z,101342.44
2024-01-20T01:42:25.649Z,101344.31
2024-01-20T01:47:28.877Z,101354.44
2024-01-20T01:52:34.424Z,101337.84
2024-01-20T01:57:37.601Z,101347.41
2024-01-20T02:02:40.522Z,101340.41
2024-01-20T02:07:49.457Z,101343.72
2024-01-20T02:12:52.878Z,101356.22
2024-01-20T02:17:57.225Z,101348.31
2024-01-20T02:23:01.585Z,101351.38
2024-01-20T02:28:05.170Z,101345.00
2024-01-20T02:33:08.192Z,101335.97
2024-01-20T02:38:12.557Z,101352.97
2024-01-20T02:43:16.633Z,101352.03
2024-01-20T02:48:19.907Z,101337.56
2024-01-20T02:53:25.450Z,101361.44
2024-01-20T02:58:28.570Z,101367.13
2024-01-20T03:03:31.651Z,101386.47
2024-01-20T03:08:36.012Z,101398.69
2024-01-20T03:13:38.970Z,101384.34
2024-01-20T03:18:42.248Z,101385.97
2024-01-20T03:23:46.624Z,101381.06
2024-01-20T03:28:49.742Z,101385.16
2024-01-20T03:33:54.020Z,101395.28
2024-01-20T03:38:58.497Z,101387.69
2024-01-20T03:44:01.513Z,101398.03
2024-01-20T03:49:04.911Z,101401.66
2024-01-20T03:54:10.308Z,101407.78
2024-01-20T03:59:13.457Z,101400.78
2024-01-20T04:04:16.403Z,101398.25
2024-01-20T04:09:21.660Z,101404.47
2024-01-20T04:14:24.629Z,101408.34
2024-01-20T04:19:27.639Z,101410.72
2024-01-20T04:24:32.081Z,101394.56
2024-01-20T04:29:34.997Z,101413.63
2024-01-20T04:34:38.307Z,101411.66
2024-01-20T04:39:42.874Z,101429.44
2024-01-20T04:44:46.189Z,101434.66
2024-01-20T04:49:49.839Z,101434.81
2024-01-20T04:54:54.619Z,101436.50
2024-01-20T04:59:57.638Z,101444.34
2024-01-20T05:05:00.553Z,101448.75
2024-01-20T05:10:05.155Z,101444.28
2024-01-20T05:15:12.847Z,101469.06
2024-01-20T05:20:16.576Z,101473.38
2024-01-20T05:25:20.938Z,101487.31
2024-01-20T05:30:24.916Z,101490.84
2024-01-20T05:35:27.885Z,101495.78
2024-01-20T05:40:32.192Z,101497.69
2024-01-20T05:45:35.244Z,101509.31
2024-01-20T05:50:38.309Z,101511.66
2024-01-20T05:55:42.671Z,101497.88
2024-01-20T06:00:45.903Z,101500.25
2024-01-20T06:05:49.386Z,101497.31
2024-01-20T06:10:54.041Z,101499.31
2024-01-20T06:15:57.331Z,101533.00
2024-01-20T06:21:01.120Z,101541.78
2024-01-20T06:26:05.719Z,101531.00
2024-01-20T06:31:08.629Z,101529.38
2024-01-20T06:36:11.596Z,101527.53
2024-01-20T06:41:15.865Z,101523.94
2024-01-20T06:46:18.835Z,101541.56
2024-01-20T06:51:26.919Z,101533.00
2024-01-20T06:56:31.288Z,101548.69
2024-01-20T07:01:34.335Z,101558.44
2024-01-20T07:06:37.285Z,101552.03
2024-01-20T07:11:41.728Z,101546.78
2024-01-20T07:16:44.614Z,101553.16
2024-01-20T07:21:47.532Z,101559.22
2024-01-20T07:26:51.855Z,101565.06
2024-01-20T07:31:54.767Z,101576.56
2024-01-20T07:36:57.703Z,101570.50
2024-01-20T07:42:02.021Z,101578.41
2024-01-20T07:47:05.388Z,101581.06
2024-01-20T07:52:08.969Z,101590.78
2024-01-20T07:57:13.317Z,101611.72
2024-01-20T08:02:16.455Z,101612.44
2024-01-20T08:07:19.406Z,101618.44
2024-01-20T08:12:23.848Z,101627.41
2024-01-20T08:17:27.023Z,101635.16
2024-01-20T08:22:30.035Z,101635.97
2024-01-20T08:27:34.402Z,101642.25
2024-01-20T08:32:38.664Z,101647.25
2024-01-20T08:37:41.748Z,101636.94
2024-01-20T08:42:46.103Z,101638.78
2024-01-20T08:47:49.180Z,101646.41
2024-01-20T08:52:52.264Z,101656.41
2024-01-20T08:57:58.039Z,101659.41
2024-01-20T09:03:01.085Z,101657.59
2024-01-20T09:08:06.178Z,101652.34
2024-01-20T09:13:11.075Z,101657.34
2024-01-20T09:18:17.387Z,101671.81
2024-01-20T09:23:20.613Z,101677.34
2024-01-20T09:28:26.303Z,101672.84
2024-01-20T09:33:29.917Z,101670.06
2024-01-20T09:38:32.994Z,101658.66
2024-01-20T09:43:39.402Z,101667.13
2024-01-20T09:48:44.555Z,101673.09
2024-01-20T09:53:49.372Z,101673.63
2024-01-20T09:58:54.705Z,101674.63
2024-01-20T10:04:02.749Z,101662.84
2024-01-20T10:09:05.871Z,101674.16
2024-01-20T10:14:10.216Z,101663.41
2024-01-20T10:19:13.289Z,101662.09
2024-01-20T10:24:22.305Z,101676.78
2024-01-20T10:29:26.975Z,101667.63
2024-01-20T10:34:30.754Z,101661.97
2024-01-20T10:39:38.365Z,101672.09
2024-01-20T10:44:44.387Z,101672.28
2024-01-20T10:49:51.108Z,101682.72
2024-01-20T10:54:54.202Z,101690.19
2024-01-20T11:00:00.863Z,101689.00
2024-01-20T11:05:04.565Z,101681.78
2024-01-20T11:10:09.946Z,101667.72
2024-01-20T11:15:19.280Z,101668.69
2024-01-20T11:20:22.366Z,101671.53
2024-01-20T11:25:25.826Z,101672.69
2024-01-20T11:30:32.002Z,101668.34
2024-01-20T11:35:38.520Z,101666.59
2024-01-20T11:40:41.628Z,101668.50
2024-01-20T11:45:46.181Z,101668.50
2024-01-20T11:50:49.450Z,101663.53
2024-01-20T11:55:57.068Z,101661.91
2024-01-20T12:01:02.711Z,101654.63
2024-01-20T12:06:09.730Z,101645.31
2024-01-20T12:11:21.055Z,101652.59
2024-01-20T12:16:26.250Z,101631.72
2024-01-20T12:21:30.073Z,101623.75
2024-01-20T12:26:33.932Z,101626.16
2024-01-20T12:31:38.471Z,101631.44
2024-01-20T12:36:41.387Z,101619.91
2024-01-20T12:41:44.438Z,101619.91
2024-01-20T12:46:49.140Z,101611.94
2024-01-20T12:51:52.241Z,101618.88
2024-01-20T12:56:55.294Z,101623.06
2024-01-20T13:01:59.542Z,101627.63
2024-01-20T13:07:02.445Z,101628.53
2024-01-20T13:12:06.269Z,101629.34
2024-01-20T13:17:10.846Z,101619.38
2024-01-20T13:22:13.802Z,101614.00
2024-01-20T13:27:16.791Z,101616.75
2024-01-20T13:32:21.325Z,101618.84
2024-01-20T13:37:25.329Z,101620.53
2024-01-20T13:42:28.474Z,101610.31
2024-01-20T13:47:32.910Z,101619.53
2024-01-20T13:52:35.935Z,101612.91
2024-01-20T13:57:38.959Z,101613.59
2024-01-20T14:02:44.708Z,101620.88
2024-01-20T14:07:47.691Z,101624.00
2024-01-20T14:12:50.621Z,101628.50
2024-01-20T14:17:54.950Z,101616.81
2024-01-20T14:22:58.008Z,101632.00
2024-01-20T14:28:02.124Z,101632.09
2024-01-20T14:33:06.987Z,101633.16
2024-01-20T14:38:10.064Z,101622.22
2024-01-20T14:43:13.022Z,101618.94
2024-01-20T14:48:17.371Z,101626.00
2024-01-20T14:53:20.991Z,101640.53
2024-01-20T14:58:23.916Z,101639.56
2024-01-20T15:03:28.257Z,101649.81
2024-01-20T15:08:31.211Z,101649.28
2024-01-20T15:13:34.235Z,101653.50
2024-01-20T15:18:38.673Z,101650.81
2024-01-20T15:23:41.793Z,101645.59
2024-01-20T15:28:45.401Z,101651.06
2024-01-20T15:33:49.841Z,101651.53
2024-01-20T15:38:52.849Z,101649.56
2024-01-20T15:43:55.873Z,101640.56
2024-01-20T15:49:00.352Z,101649.13
2024-01-20T15:54:03.348Z,101658.03
2024-01-20T15:59:06.273Z,101651.34
2024-01-20T16:04:10.776Z,101657.72
2024-01-20T16:09:15.628Z,101662.22
2024-01-20T16:14:23.480Z,101663.03
2024-01-20T16:19:28.843Z,101664.38
2024-01-20T16:24:31.898Z,101660.75
2024-01-20T16:29:35.151Z,101658.59
2024-01-20T16:34:39.783Z,101656.66
2024-01-20T16:39:42.973Z,101666.13
2024-01-20T16:44:46.181Z,101666.28
2024-01-20T16:49:50.700Z,101661.50
2024-01-20T16:54:53.765Z,101661.03
2024-01-20T16:59:56.652Z,101668.25
2024-01-20T17:05:01.083Z,101665.00
2024-01-20T17:10:04.477Z,101664.59
2024-01-20T17:15:09.619Z,101666.41
2024-01-20T17:20:14.542Z,101667.19
2024-01-20T17:25:17.614Z,101664.53
2024-01-20T17:30:20.677Z,101684.63
2024-01-20T17:35:25.334Z,101680.44
2024-01-20T17:40:28.433Z,101668.41
2024-01-20T17:45:31.473Z,101671.31
2024-01-20T17:50:35.849Z,101668.84
2024-01-20T17:55:38.926Z,101676.06
2024-01-20T18:00:42.758Z,101668.13
2024-01-20T18:05:47.239Z,101665.41
2024-01-20T18:10:51.748Z,101672.72
2024-01-20T18:15:54.899Z,101667.56
2024-01-20T18:20:59.375Z,101666.06
2024-01-20T18:26:02.320Z,101672.53
2024-01-20T18:31:08.209Z,101679.06
2024-01-20T18:36:13.151Z,101680.94
2024-01-20T18:41:18.242Z,101677.28
2024-01-20T18:46:22.058Z,101684.28
2024-01-20T18:51:26.468Z,101680.63
2024-01-20T18:56:29.559Z,101677.16
2024-01-20T19:01:33.770Z,101690.50
2024-01-20T19:06:38.326Z,101686.13
2024-01-20T19:11:41.492Z,101674.69
2024-01-20T19:16:44.502Z,101672.97
2024-01-20T19:21:49.592Z,101665.91
2024-01-20T19:26:52.609Z,101675.88
2024-01-20T19:31:55.617Z,101667.06
2024-01-20T19:36:59.919Z,101668.06
2024-01-20T19:42:03.006Z,101670.84
2024-01-20T19:47:07.527Z,101671.84
2024-01-20T19:52:11.887Z,101673.78
2024-01-20T19:57:16.294Z,101674.69
2024-01-20T20:02:19.335Z,101662.50
2024-01-20T20:07:23.734Z,101660.84
2024-01-20T20:12:26.653Z,101650.41
2024-01-20T20:17:29.636Z,101649.69
2024-01-20T20:22:33.994Z,101660.31
2024-01-20T20:27:36.971Z,101653.34
2024-01-20T20:32:40.864Z,101645.44
2024-01-20T20:37:45.496Z,101656.00
2024-01-20T20:42:48.609Z,101652.50
2024-01-20T20:47:51.682Z,101643.72
2024-01-20T20:52:56.025Z,101647.16
2024-01-20T20:57:58.995Z,101642.91
2024-01-20T21:03:02.147Z,101631.53
2024-01-20T21:08:07.057Z,101627.94
2024-01-20T21:13:11.430Z,101613.09
2024-01-20T21:18:15.285Z,101632.44
2024-01-20T21:23:19.841Z,101626.28
2024-01-20T21:28:23.476Z,101622.81
2024-01-20T21:33:26.703Z,101610.53
2024-01-20T21:38:31.073Z,101613.13
2024-01-20T21:43:34.059Z,101605.34
2024-01-20T21:48:37.778Z,101597.53
2024-01-20T21:53:42.546Z,101587.19
2024-01-20T21:58:45.554Z,101579.41
2024-01-20T22:03:49.140Z,101579.97
2024-01-20T22:08:53.532Z,101589.72
2024-01-20T22:13:56.604Z,101580.81
2024-01-20T22:18:59.724Z,101593.28
2024-01-20T22:24:04.284Z,101580.00
2024-01-20T22:29:18.775Z,101594.97
2024-01-20T22:34:31.814Z,101597.56
2024-01-20T22:39:38.151Z,101577.50
2024-01-20T22:44:41.117Z,101575.75
2024-01-20T22:49:44.507Z,101577.56
2024-01-20T22:54:49.653Z,101569.66
2024-01-20T22:59:52.797Z,101566.28
2024-01-20T23:04:56.347Z,101557.59
2024-01-20T23:10:00.815Z,101558.47
2024-01-20T23:15:04.090Z,101551.59
2024-01-20T23:20:09.140Z,101557.72
2024-01-20T23:25:13.530Z,101543.75
2024-01-20T23:30:17.163Z,101543.00
2024-01-20T23:35:20.174Z,101539.47
2024-01-20T23:40:24.512Z,101542.88
2024-01-20T23:45:28.448Z,101538.56
2024-01-20T23:50:31.581Z,101543.84
2024-01-20T23:55:35.854Z,101555.25
